sensor_id;sensor_type;location;lat;lon;timestamp;pressure;altitude;pressure_sealevel;temperature;humidity
9521;BME280;4798;41.574;23.734;2023-12-20T00:01:52;95817.59;;;5.06;80.40
9521;BME280;4798;41.574;23.734;2023-12-20T00:04:28;95815.91;;;5.12;80.87
9521;BME280;4798;41.574;23.734;2023-12-20T00:06:58;95814.44;;;5.16;81.50
9521;BME280;4798;41.574;23.734;2023-12-20T00:09:26;95813.13;;;5.07;79.58
9521;BME280;4798;41.574;23.734;2023-12-20T00:11:55;95812.75;;;4.74;82.42
9521;BME280;4798;41.574;23.734;2023-12-20T00:14:24;95809.75;;;4.88;81.62
9521;BME280;4798;41.574;23.734;2023-12-20T00:16:52;95796.47;;;4.83;80.51
9521;BME280;4798;41.574;23.734;2023-12-20T00:19:21;95809.56;;;5.01;82.20
9521;BME280;4798;41.574;23.734;2023-12-20T00:21:51;95790.03;;;4.97;82.51
9521;BME280;4798;41.574;23.734;2023-12-20T00:24:19;95802.72;;;5.00;81.84
9521;BME280;4798;41.574;23.734;2023-12-20T00:26:48;95797.09;;;4.97;81.09
9521;BME280;4798;41.574;23.734;2023-12-20T00:29:17;95792.81;;;5.02;83.29
9521;BME280;4798;41.574;23.734;2023-12-20T00:31:45;95793.94;;;5.06;82.80
9521;BME280;4798;41.574;23.734;2023-12-20T00:34:14;95791.19;;;5.01;82.75
9521;BME280;4798;41.574;23.734;2023-12-20T00:36:43;95785.13;;;5.01;81.93
9521;BME280;4798;41.574;23.734;2023-12-20T00:39:13;95800.31;;;4.99;81.84
9521;BME280;4798;41.574;23.734;2023-12-20T00:41:42;95787.13;;;4.87;85.02
9521;BME280;4798;41.574;23.734;2023-12-20T00:44:10;95781.53;;;4.84;80.80
9521;BME280;4798;41.574;23.734;2023-12-20T00:46:39;95780.94;;;4.82;82.16
9521;BME280;4798;41.574;23.734;2023-12-20T00:49:07;95763.50;;;4.87;82.54
9521;BME280;4798;41.574;23.734;2023-12-20T00:51:36;95780.78;;;4.95;81.72
9521;BME280;4798;41.574;23.734;2023-12-20T00:54:05;95774.84;;;4.99;80.90
9521;BME280;4798;41.574;23.734;2023-12-20T00:56:35;95752.44;;;4.85;80.75
9521;BME280;4798;41.574;23.734;2023-12-20T00:59:03;95780.81;;;5.06;80.38
9521;BME280;4798;41.574;23.734;2023-12-20T01:01:32;95782.38;;;4.96;80.14
9521;BME280;4798;41.574;23.734;2023-12-20T01:04:01;95773.94;;;4.76;79.27
9521;BME280;4798;41.574;23.734;2023-12-20T01:06:30;95772.78;;;4.72;79.56
9521;BME280;4798;41.574;23.734;2023-12-20T01:08:58;95765.59;;;4.67;80.21
9521;BME280;4798;41.574;23.734;2023-12-20T01:11:27;95760.59;;;4.47;80.16
9521;BME280;4798;41.574;23.734;2023-12-20T01:13:57;95767.84;;;4.45;80.29
9521;BME280;4798;41.574;23.734;2023-12-20T01:16:25;95743.66;;;4.25;80.99
9521;BME280;4798;41.574;23.734;2023-12-20T01:18:54;95758.03;;;4.41;80.50
9521;BME280;4798;41.574;23.734;2023-12-20T01:21:23;95762.25;;;4.42;79.46
9521;BME280;4798;41.574;23.734;2023-12-20T01:23:52;95753.28;;;4.31;79.50
9521;BME280;4798;41.574;23.734;2023-12-20T01:26:20;95758.66;;;4.00;81.28
9521;BME280;4798;41.574;23.734;2023-12-20T01:28:49;95761.00;;;4.08;80.74
9521;BME280;4798;41.574;23.734;2023-12-20T01:31:19;95753.53;;;4.12;80.13
9521;BME280;4798;41.574;23.734;2023-12-20T01:33:47;95748.78;;;4.20;79.37
9521;BME280;4798;41.574;23.734;2023-12-20T01:36:16;95746.50;;;4.06;79.50
9521;BME280;4798;41.574;23.734;2023-12-20T01:38:45;95665.81;;;3.71;79.23
9521;BME280;4798;41.574;23.734;2023-12-20T01:41:13;95735.44;;;4.22;79.10
9521;BME280;4798;41.574;23.734;2023-12-20T01:43:42;95718.38;;;4.13;79.38
9521;BME280;4798;41.574;23.734;2023-12-20T01:46:20;95714.38;;;4.28;81.50
9521;BME280;4798;41.574;23.734;2023-12-20T01:48:49;95729.69;;;4.31;81.12
9521;BME280;4798;41.574;23.734;2023-12-20T01:51:18;95712.13;;;4.32;81.16
9521;BME280;4798;41.574;23.734;2023-12-20T01:53:48;95710.75;;;4.11;79.77
9521;BME280;4798;41.574;23.734;2023-12-20T01:56:17;95706.78;;;4.20;81.19
9521;BME280;4798;41.574;23.734;2023-12-20T01:58:46;95711.97;;;4.27;80.43
9521;BME280;4798;41.574;23.734;2023-12-20T02:01:16;95586.75;;;3.56;80.60
9521;BME280;4798;41.574;23.734;2023-12-20T02:03:47;95701.47;;;4.27;81.76
9521;BME280;4798;41.574;23.734;2023-12-20T02:06:17;95689.75;;;4.29;82.25
9521;BME280;4798;41.574;23.734;2023-12-20T02:08:46;95688.66;;;4.37;81.70
9521;BME280;4798;41.574;23.734;2023-12-20T02:11:15;95687.47;;;4.33;80.85
9521;BME280;4798;41.574;23.734;2023-12-20T02:13:44;95701.25;;;4.28;82.77
9521;BME280;4798;41.574;23.734;2023-12-20T02:16:12;95666.88;;;3.82;82.39
9521;BME280;4798;41.574;23.734;2023-12-20T02:18:42;95693.63;;;4.09;82.56
9521;BME280;4798;41.574;23.734;2023-12-20T02:21:12;95690.63;;;4.05;82.61
9521;BME280;4798;41.574;23.734;2023-12-20T02:23:42;95685.19;;;4.07;80.88
9521;BME280;4798;41.574;23.734;2023-12-20T02:26:11;95686.44;;;3.43;83.07
9521;BME280;4798;41.574;23.734;2023-12-20T02:28:41;95693.66;;;2.98;85.82
9521;BME280;4798;41.574;23.734;2023-12-20T02:31:09;95680.88;;;2.52;88.24
9521;BME280;4798;41.574;23.734;2023-12-20T02:33:38;95685.19;;;2.72;88.58
9521;BME280;4798;41.574;23.734;2023-12-20T02:36:09;95677.41;;;2.90;89.40
9521;BME280;4798;41.574;23.734;2023-12-20T02:38:37;95689.47;;;3.40;87.65
9521;BME280;4798;41.574;23.734;2023-12-20T02:41:07;95681.78;;;3.45;85.66
9521;BME280;4798;41.574;23.734;2023-12-20T02:43:36;95689.72;;;3.57;83.84
9521;BME280;4798;41.574;23.734;2023-12-20T02:46:04;95680.47;;;3.54;83.49
9521;BME280;4798;41.574;23.734;2023-12-20T02:48:33;95667.38;;;3.36;84.68
9521;BME280;4798;41.574;23.734;2023-12-20T02:51:02;95675.00;;;3.38;83.75
9521;BME280;4798;41.574;23.734;2023-12-20T02:53:30;95683.53;;;3.51;83.32
9521;BME280;4798;41.574;23.734;2023-12-20T02:55:59;95675.69;;;3.69;82.38
9521;BME280;4798;41.574;23.734;2023-12-20T02:58:29;95678.00;;;3.59;81.78
9521;BME280;4798;41.574;23.734;2023-12-20T03:00:58;95678.00;;;3.59;81.80
9521;BME280;4798;41.574;23.734;2023-12-20T03:03:26;95670.38;;;3.58;82.26
9521;BME280;4798;41.574;23.734;2023-12-20T03:05:55;95661.50;;;3.34;82.91
9521;BME280;4798;41.574;23.734;2023-12-20T03:08:24;95659.28;;;3.38;83.69
9521;BME280;4798;41.574;23.734;2023-12-20T03:10:56;95657.53;;;3.50;85.06
9521;BME280;4798;41.574;23.734;2023-12-20T03:13:24;95655.31;;;3.53;83.04
9521;BME280;4798;41.574;23.734;2023-12-20T03:15:54;95667.69;;;3.82;84.63
9521;BME280;4798;41.574;23.734;2023-12-20T03:18:23;95678.63;;;3.61;81.15
9521;BME280;4798;41.574;23.734;2023-12-20T03:20:51;95663.91;;;3.60;82.94
9521;BME280;4798;41.574;23.734;2023-12-20T03:23:20;95661.88;;;3.80;93.28
9521;BME280;4798;41.574;23.734;2023-12-20T03:25:49;95657.34;;;3.51;84.52
9521;BME280;4798;41.574;23.734;2023-12-20T03:28:17;95659.38;;;3.25;84.25
9521;BME280;4798;41.574;23.734;2023-12-20T03:30:46;95656.09;;;3.11;84.35
9521;BME280;4798;41.574;23.734;2023-12-20T03:33:16;95654.88;;;3.32;82.98
9521;BME280;4798;41.574;23.734;2023-12-20T03:35:45;95651.56;;;3.43;84.08
9521;BME280;4798;41.574;23.734;2023-12-20T03:38:12;95645.22;;;3.32;82.38
9521;BME280;4798;41.574;23.734;2023-12-20T03:40:41;95652.50;;;2.81;84.58
9521;BME280;4798;41.574;23.734;2023-12-20T03:43:09;95651.31;;;2.77;85.04
9521;BME280;4798;41.574;23.734;2023-12-20T03:45:38;95650.41;;;2.89;85.13
9521;BME280;4798;41.574;23.734;2023-12-20T03:48:07;95645.41;;;2.88;83.74
9521;BME280;4798;41.574;23.734;2023-12-20T03:50:37;95631.09;;;2.90;83.77
9521;BME280;4798;41.574;23.734;2023-12-20T03:53:06;95641.56;;;3.15;82.05
9521;BME280;4798;41.574;23.734;2023-12-20T03:55:35;95634.59;;;3.27;81.00
9521;BME280;4798;41.574;23.734;2023-12-20T03:58:03;95637.63;;;3.24;81.01
9521;BME280;4798;41.574;23.734;2023-12-20T04:00:34;95642.22;;;2.86;82.21
9521;BME280;4798;41.574;23.734;2023-12-20T04:03:03;95636.97;;;2.86;83.27
9521;BME280;4798;41.574;23.734;2023-12-20T04:05:32;95640.69;;;2.72;84.67
9521;BME280;4798;41.574;23.734;2023-12-20T04:08:02;95638.53;;;2.31;87.33
9521;BME280;4798;41.574;23.734;2023-12-20T04:10:31;95630.34;;;2.21;90.71
9521;BME280;4798;41.574;23.734;2023-12-20T04:13:00;95627.72;;;2.21;91.25
9521;BME280;4798;41.574;23.734;2023-12-20T04:15:28;95632.41;;;2.43;89.46
9521;BME280;4798;41.574;23.734;2023-12-20T04:17:57;95626.66;;;2.35;89.26
9521;BME280;4798;41.574;23.734;2023-12-20T04:20:25;95620.41;;;2.67;87.47
9521;BME280;4798;41.574;23.734;2023-12-20T04:22:54;95622.19;;;2.35;88.71
9521;BME280;4798;41.574;23.734;2023-12-20T04:25:24;95615.97;;;1.99;93.97
9521;BME280;4798;41.574;23.734;2023-12-20T04:27:53;95626.56;;;1.66;98.29
9521;BME280;4798;41.574;23.734;2023-12-20T04:30:21;95620.00;;;2.01;97.11
9521;BME280;4798;41.574;23.734;2023-12-20T04:32:50;95617.84;;;1.85;96.74
9521;BME280;4798;41.574;23.734;2023-12-20T04:35:18;95605.13;;;1.95;96.32
9521;BME280;4798;41.574;23.734;2023-12-20T04:37:47;95619.22;;;1.94;95.42
9521;BME280;4798;41.574;23.734;2023-12-20T04:40:16;95619.25;;;2.25;94.36
9521;BME280;4798;41.574;23.734;2023-12-20T04:42:47;95623.50;;;2.58;90.46
9521;BME280;4798;41.574;23.734;2023-12-20T04:45:15;95611.31;;;2.70;87.88
9521;BME280;4798;41.574;23.734;2023-12-20T04:47:45;95620.63;;;2.90;86.59
9521;BME280;4798;41.574;23.734;2023-12-20T04:50:15;95601.25;;;2.91;85.25
9521;BME280;4798;41.574;23.734;2023-12-20T04:52:44;95604.69;;;2.92;83.84
9521;BME280;4798;41.574;23.734;2023-12-20T04:55:13;95613.88;;;2.76;83.58
9521;BME280;4798;41.574;23.734;2023-12-20T04:57:41;95614.41;;;2.85;83.86
9521;BME280;4798;41.574;23.734;2023-12-20T05:00:12;95617.88;;;2.79;83.07
9521;BME280;4798;41.574;23.734;2023-12-20T05:02:42;95618.09;;;2.77;82.82
9521;BME280;4798;41.574;23.734;2023-12-20T05:05:11;95612.44;;;3.05;82.96
9521;BME280;4798;41.574;23.734;2023-12-20T05:07:39;95601.75;;;2.82;84.01
9521;BME280;4798;41.574;23.734;2023-12-20T05:10:09;95614.09;;;2.99;83.04
9521;BME280;4798;41.574;23.734;2023-12-20T05:12:38;95623.28;;;3.08;82.79
9521;BME280;4798;41.574;23.734;2023-12-20T05:15:07;95612.94;;;2.95;82.56
9521;BME280;4798;41.574;23.734;2023-12-20T05:17:37;95609.31;;;3.14;83.60
9521;BME280;4798;41.574;23.734;2023-12-20T05:20:07;95599.28;;;3.11;81.47
9521;BME280;4798;41.574;23.734;2023-12-20T05:22:36;95598.56;;;3.22;82.29
9521;BME280;4798;41.574;23.734;2023-12-20T05:25:06;95593.25;;;2.62;82.30
9521;BME280;4798;41.574;23.734;2023-12-20T05:27:34;95592.34;;;2.18;86.74
9521;BME280;4798;41.574;23.734;2023-12-20T05:30:03;95533.88;;;1.75;88.39
9521;BME280;4798;41.574;23.734;2023-12-20T05:32:32;95584.75;;;2.41;88.94
9521;BME280;4798;41.574;23.734;2023-12-20T05:35:02;95578.63;;;2.79;86.85
9521;BME280;4798;41.574;23.734;2023-12-20T05:37:31;95583.06;;;2.78;85.39
9521;BME280;4798;41.574;23.734;2023-12-20T05:40:00;95586.31;;;2.49;84.52
9521;BME280;4798;41.574;23.734;2023-12-20T05:42:28;95577.28;;;2.45;83.99
9521;BME280;4798;41.574;23.734;2023-12-20T05:44:57;95577.13;;;2.40;84.81
9521;BME280;4798;41.574;23.734;2023-12-20T05:47:25;95582.28;;;2.15;85.84
9521;BME280;4798;41.574;23.734;2023-12-20T05:49:54;95584.72;;;1.79;87.92
9521;BME280;4798;41.574;23.734;2023-12-20T05:52:24;95573.91;;;1.69;91.04
9521;BME280;4798;41.574;23.734;2023-12-20T05:54:53;95587.28;;;1.35;92.94
9521;BME280;4798;41.574;23.734;2023-12-20T05:57:22;95585.31;;;1.23;99.66
9521;BME280;4798;41.574;23.734;2023-12-20T05:59:51;95591.72;;;1.27;100.00
9521;BME280;4798;41.574;23.734;2023-12-20T06:02:19;95586.03;;;1.50;98.20
9521;BME280;4798;41.574;23.734;2023-12-20T06:04:48;95550.03;;;1.59;95.87
9521;BME280;4798;41.574;23.734;2023-12-20T06:07:17;95573.31;;;1.67;95.33
9521;BME280;4798;41.574;23.734;2023-12-20T06:09:47;95585.19;;;2.07;93.46
9521;BME280;4798;41.574;23.734;2023-12-20T06:12:16;95582.63;;;2.56;89.21
9521;BME280;4798;41.574;23.734;2023-12-20T06:14:44;95583.06;;;3.03;86.24
9521;BME280;4798;41.574;23.734;2023-12-20T06:17:13;95582.78;;;2.86;84.90
9521;BME280;4798;41.574;23.734;2023-12-20T06:19:42;95584.78;;;2.91;85.14
9521;BME280;4798;41.574;23.734;2023-12-20T06:22:12;95575.97;;;2.85;84.95
9521;BME280;4798;41.574;23.734;2023-12-20T06:24:40;95588.47;;;2.83;84.61
9521;BME280;4798;41.574;23.734;2023-12-20T06:27:10;95586.00;;;2.88;84.23
9521;BME280;4798;41.574;23.734;2023-12-20T06:29:39;95590.06;;;2.84;84.22
9521;BME280;4798;41.574;23.734;2023-12-20T06:32:09;95585.88;;;3.01;83.55
9521;BME280;4798;41.574;23.734;2023-12-20T06:34:38;95579.94;;;3.12;83.66
9521;BME280;4798;41.574;23.734;2023-12-20T06:37:07;95566.88;;;3.49;82.83
9521;BME280;4798;41.574;23.734;2023-12-20T06:39:35;95573.81;;;3.91;80.64
9521;BME280;4798;41.574;23.734;2023-12-20T06:42:04;95577.84;;;3.57;82.02
9521;BME280;4798;41.574;23.734;2023-12-20T06:44:34;95578.50;;;3.53;82.71
9521;BME280;4798;41.574;23.734;2023-12-20T06:47:03;95570.59;;;4.07;80.03
9521;BME280;4798;41.574;23.734;2023-12-20T06:49:32;95568.31;;;4.11;79.61
9521;BME280;4798;41.574;23.734;2023-12-20T06:52:02;95555.97;;;4.41;78.05
9521;BME280;4798;41.574;23.734;2023-12-20T06:54:30;95561.81;;;4.13;81.33
9521;BME280;4798;41.574;23.734;2023-12-20T06:57:01;95545.22;;;4.31;80.48
9521;BME280;4798;41.574;23.734;2023-12-20T06:59:30;95560.50;;;4.75;81.02
9521;BME280;4798;41.574;23.734;2023-12-20T07:02:00;95548.72;;;5.36;81.10
9521;BME280;4798;41.574;23.734;2023-12-20T07:04:29;95551.78;;;5.44;79.79
9521;BME280;4798;41.574;23.734;2023-12-20T07:06:57;95539.84;;;5.65;79.43
9521;BME280;4798;41.574;23.734;2023-12-20T07:09:27;95546.56;;;6.12;75.68
9521;BME280;4798;41.574;23.734;2023-12-20T07:11:56;95550.97;;;6.52;73.07
9521;BME280;4798;41.574;23.734;2023-12-20T07:14:25;95520.63;;;6.66;73.42
9521;BME280;4798;41.574;23.734;2023-12-20T07:16:53;95522.84;;;7.07;71.77
9521;BME280;4798;41.574;23.734;2023-12-20T07:19:23;95533.09;;;7.42;69.38
9521;BME280;4798;41.574;23.734;2023-12-20T07:21:52;95524.56;;;7.56;68.75
9521;BME280;4798;41.574;23.734;2023-12-20T07:24:21;95522.81;;;7.84;68.54
9521;BME280;4798;41.574;23.734;2023-12-20T07:26:49;95513.16;;;8.21;66.78
9521;BME280;4798;41.574;23.734;2023-12-20T07:29:18;95509.22;;;8.23;66.74
9521;BME280;4798;41.574;23.734;2023-12-20T07:31:47;95501.56;;;8.49;65.17
9521;BME280;4798;41.574;23.734;2023-12-20T07:34:16;95503.84;;;8.67;64.95
9521;BME280;4798;41.574;23.734;2023-12-20T07:36:46;95499.53;;;9.34;63.10
9521;BME280;4798;41.574;23.734;2023-12-20T07:39:15;95495.97;;;9.61;60.99
9521;BME280;4798;41.574;23.734;2023-12-20T07:41:43;95496.91;;;9.39;60.32
9521;BME280;4798;41.574;23.734;2023-12-20T07:44:12;95492.44;;;8.61;61.28
9521;BME280;4798;41.574;23.734;2023-12-20T07:46:42;95497.31;;;8.79;61.17
9521;BME280;4798;41.574;23.734;2023-12-20T07:49:11;95496.94;;;8.66;62.15
9521;BME280;4798;41.574;23.734;2023-12-20T07:51:39;95489.59;;;9.62;59.44
9521;BME280;4798;41.574;23.734;2023-12-20T07:54:10;95489.47;;;9.93;57.44
9521;BME280;4798;41.574;23.734;2023-12-20T07:56:38;95471.97;;;9.97;57.57
9521;BME280;4798;41.574;23.734;2023-12-20T07:59:07;95484.56;;;10.37;56.64
9521;BME280;4798;41.574;23.734;2023-12-20T08:01:48;95484.25;;;10.18;56.86
9521;BME280;4798;41.574;23.734;2023-12-20T08:04:17;95475.78;;;10.27;57.02
9521;BME280;4798;41.574;23.734;2023-12-20T08:06:46;95479.00;;;10.49;56.75
9521;BME280;4798;41.574;23.734;2023-12-20T08:09:16;95486.13;;;11.04;55.47
9521;BME280;4798;41.574;23.734;2023-12-20T08:11:45;95475.53;;;10.83;54.75
9521;BME280;4798;41.574;23.734;2023-12-20T08:14:13;95478.69;;;11.06;53.67
9521;BME280;4798;41.574;23.734;2023-12-20T08:16:45;95478.19;;;10.78;53.71
9521;BME280;4798;41.574;23.734;2023-12-20T08:19:13;95480.03;;;10.33;54.08
9521;BME280;4798;41.574;23.734;2023-12-20T08:21:42;95474.22;;;10.56;54.04
9521;BME280;4798;41.574;23.734;2023-12-20T08:24:11;95467.88;;;10.47;54.98
9521;BME280;4798;41.574;23.734;2023-12-20T08:26:41;95472.28;;;10.06;55.04
9521;BME280;4798;41.574;23.734;2023-12-20T08:29:09;95474.88;;;9.29;56.56
9521;BME280;4798;41.574;23.734;2023-12-20T08:31:38;95470.69;;;9.33;56.96
9521;BME280;4798;41.574;23.734;2023-12-20T08:34:06;95470.59;;;8.39;59.17
9521;BME280;4798;41.574;23.734;2023-12-20T08:36:35;95471.03;;;8.31;59.72
9521;BME280;4798;41.574;23.734;2023-12-20T08:39:04;95457.97;;;8.19;60.28
9521;BME280;4798;41.574;23.734;2023-12-20T08:41:35;95445.25;;;8.43;59.50
9521;BME280;4798;41.574;23.734;2023-12-20T08:44:05;95417.19;;;8.05;59.95
9521;BME280;4798;41.574;23.734;2023-12-20T08:46:34;95444.72;;;8.41;59.95
9521;BME280;4798;41.574;23.734;2023-12-20T08:49:02;95394.00;;;7.81;60.55
9521;BME280;4798;41.574;23.734;2023-12-20T08:51:32;95436.69;;;8.63;59.69
9521;BME280;4798;41.574;23.734;2023-12-20T08:54:01;95424.63;;;9.29;58.66
9521;BME280;4798;41.574;23.734;2023-12-20T08:56:30;95407.00;;;9.49;58.50
9521;BME280;4798;41.574;23.734;2023-12-20T08:58:59;95422.97;;;9.85;58.42
9521;BME280;4798;41.574;23.734;2023-12-20T09:01:29;95404.72;;;10.99;56.40
9521;BME280;4798;41.574;23.734;2023-12-20T09:03:57;95403.28;;;11.32;56.24
9521;BME280;4798;41.574;23.734;2023-12-20T09:06:26;95400.91;;;11.89;54.35
9521;BME280;4798;41.574;23.734;2023-12-20T09:08:55;95381.44;;;12.38;53.19
9521;BME280;4798;41.574;23.734;2023-12-20T09:11:23;95381.31;;;12.53;52.68
9521;BME280;4798;41.574;23.734;2023-12-20T09:13:52;95362.41;;;13.12;50.82
9521;BME280;4798;41.574;23.734;2023-12-20T09:16:21;95369.31;;;13.74;48.91
9521;BME280;4798;41.574;23.734;2023-12-20T09:18:51;95361.72;;;14.55;47.63
9521;BME280;4798;41.574;23.734;2023-12-20T09:21:20;95353.69;;;14.42;46.09
9521;BME280;4798;41.574;23.734;2023-12-20T09:23:49;95339.31;;;14.70;46.80
9521;BME280;4798;41.574;23.734;2023-12-20T09:26:17;95331.56;;;15.91;44.33
9521;BME280;4798;41.574;23.734;2023-12-20T09:28:46;95328.28;;;15.58;43.41
9521;BME280;4798;41.574;23.734;2023-12-20T09:31:14;95306.25;;;15.88;42.89
9521;BME280;4798;41.574;23.734;2023-12-20T09:33:43;95326.28;;;15.37;43.28
9521;BME280;4798;41.574;23.734;2023-12-20T09:36:13;95319.75;;;15.56;43.66
9521;BME280;4798;41.574;23.734;2023-12-20T09:38:42;95311.38;;;15.85;43.05
9521;BME280;4798;41.574;23.734;2023-12-20T09:41:13;95298.50;;;15.87;43.19
9521;BME280;4798;41.574;23.734;2023-12-20T09:43:42;95295.31;;;15.99;43.62
9521;BME280;4798;41.574;23.734;2023-12-20T09:46:12;95296.44;;;16.28;43.07
9521;BME280;4798;41.574;23.734;2023-12-20T09:48:45;95282.47;;;16.31;42.37
9521;BME280;4798;41.574;23.734;2023-12-20T09:51:15;95283.03;;;15.98;42.85
9521;BME280;4798;41.574;23.734;2023-12-20T09:53:44;95269.38;;;16.52;42.48
9521;BME280;4798;41.574;23.734;2023-12-20T09:56:14;95259.81;;;16.99;41.57
9521;BME280;4798;41.574;23.734;2023-12-20T09:58:43;95257.94;;;16.60;42.16
9521;BME280;4798;41.574;23.734;2023-12-20T10:01:12;95248.00;;;16.91;42.41
9521;BME280;4798;41.574;23.734;2023-12-20T10:03:41;95243.38;;;16.44;42.20
9521;BME280;4798;41.574;23.734;2023-12-20T10:06:10;95243.50;;;15.37;44.35
9521;BME280;4798;41.574;23.734;2023-12-20T10:08:40;95235.50;;;15.23;43.85
9521;BME280;4798;41.574;23.734;2023-12-20T10:11:09;95201.13;;;16.02;43.86
9521;BME280;4798;41.574;23.734;2023-12-20T10:13:39;95193.69;;;16.99;41.68
9521;BME280;4798;41.574;23.734;2023-12-20T10:16:08;95198.56;;;16.97;41.31
9521;BME280;4798;41.574;23.734;2023-12-20T10:18:37;95197.41;;;17.55;40.44
9521;BME280;4798;41.574;23.734;2023-12-20T10:21:06;95189.16;;;17.51;41.74
9521;BME280;4798;41.574;23.734;2023-12-20T10:23:37;95170.22;;;17.13;41.10
9521;BME280;4798;41.574;23.734;2023-12-20T10:26:09;95164.38;;;17.89;40.44
9521;BME280;4798;41.574;23.734;2023-12-20T10:28:39;95174.19;;;17.85;41.08
9521;BME280;4798;41.574;23.734;2023-12-20T10:31:07;95161.81;;;18.18;39.36
9521;BME280;4798;41.574;23.734;2023-12-20T10:33:36;95153.53;;;18.40;38.57
9521;BME280;4798;41.574;23.734;2023-12-20T10:36:09;95139.81;;;18.33;38.60
9521;BME280;4798;41.574;23.734;2023-12-20T10:38:42;95134.66;;;18.66;38.32
9521;BME280;4798;41.574;23.734;2023-12-20T10:41:13;95123.94;;;18.57;38.09
9521;BME280;4798;41.574;23.734;2023-12-20T10:43:45;95126.56;;;18.95;37.25
9521;BME280;4798;41.574;23.734;2023-12-20T10:46:15;95116.19;;;19.55;36.79
9521;BME280;4798;41.574;23.734;2023-12-20T10:48:46;95118.31;;;19.62;36.84
9521;BME280;4798;41.574;23.734;2023-12-20T10:51:17;95108.97;;;19.80;35.41
9521;BME280;4798;41.574;23.734;2023-12-20T10:53:47;95078.56;;;19.68;34.17
9521;BME280;4798;41.574;23.734;2023-12-20T10:56:19;95076.00;;;20.16;34.65
9521;BME280;4798;41.574;23.734;2023-12-20T10:58:48;95075.66;;;20.42;35.28
9521;BME280;4798;41.574;23.734;2023-12-20T11:01:19;95084.31;;;20.71;34.24
9521;BME280;4798;41.574;23.734;2023-12-20T11:03:50;95075.00;;;20.45;34.62
9521;BME280;4798;41.574;23.734;2023-12-20T11:06:29;95082.13;;;19.59;35.55
9521;BME280;4798;41.574;23.734;2023-12-20T11:09:10;95066.97;;;19.22;36.86
9521;BME280;4798;41.574;23.734;2023-12-20T11:11:56;95071.13;;;19.32;36.54
9521;BME280;4798;41.574;23.734;2023-12-20T11:14:33;95065.53;;;19.04;36.80
9521;BME280;4798;41.574;23.734;2023-12-20T11:17:07;95056.66;;;20.02;36.04
9521;BME280;4798;41.574;23.734;2023-12-20T11:22:30;95061.53;;;19.63;35.84
9521;BME280;4798;41.574;23.734;2023-12-20T11:25:04;95056.47;;;19.50;36.68
9521;BME280;4798;41.574;23.734;2023-12-20T11:27:35;95043.38;;;19.60;35.77
9521;BME280;4798;41.574;23.734;2023-12-20T11:30:05;95036.63;;;19.54;35.50
9521;BME280;4798;41.574;23.734;2023-12-20T11:32:36;95034.81;;;19.26;34.38
9521;BME280;4798;41.574;23.734;2023-12-20T11:35:18;95030.91;;;19.44;36.30
9521;BME280;4798;41.574;23.734;2023-12-20T11:37:48;95031.44;;;18.75;37.20
9521;BME280;4798;41.574;23.734;2023-12-20T11:40:18;95017.09;;;19.13;37.42
9521;BME280;4798;41.574;23.734;2023-12-20T11:42:51;95018.94;;;19.33;36.10
9521;BME280;4798;41.574;23.734;2023-12-20T11:45:24;95012.00;;;19.52;36.53
9521;BME280;4798;41.574;23.734;2023-12-20T11:47:57;95013.53;;;19.41;36.85
9521;BME280;4798;41.574;23.734;2023-12-20T11:50:26;95007.72;;;19.19;37.89
9521;BME280;4798;41.574;23.734;2023-12-20T11:52:55;95013.25;;;18.81;38.09
9521;BME280;4798;41.574;23.734;2023-12-20T11:55:24;94997.28;;;18.84;38.26
9521;BME280;4798;41.574;23.734;2023-12-20T11:57:54;94998.72;;;19.35;37.15
9521;BME280;4798;41.574;23.734;2023-12-20T12:00:23;94986.06;;;20.17;36.17
9521;BME280;4798;41.574;23.734;2023-12-20T12:02:57;94990.78;;;19.39;36.95
9521;BME280;4798;41.574;23.734;2023-12-20T12:05:26;94983.81;;;18.52;37.87
9521;BME280;4798;41.574;23.734;2023-12-20T12:07:55;94984.91;;;18.21;38.14
9521;BME280;4798;41.574;23.734;2023-12-20T12:10:24;94972.00;;;18.65;38.63
9521;BME280;4798;41.574;23.734;2023-12-20T12:12:54;94902.56;;;17.93;38.10
9521;BME280;4798;41.574;23.734;2023-12-20T12:15:23;94966.38;;;19.44;36.69
9521;BME280;4798;41.574;23.734;2023-12-20T12:17:54;94968.78;;;20.18;35.53
9521;BME280;4798;41.574;23.734;2023-12-20T12:20:24;94950.53;;;20.23;35.00
9521;BME280;4798;41.574;23.734;2023-12-20T12:22:59;94957.97;;;19.13;36.51
9521;BME280;4798;41.574;23.734;2023-12-20T12:25:29;94949.25;;;19.16;35.83
9521;BME280;4798;41.574;23.734;2023-12-20T12:27:59;94954.84;;;19.11;36.06
9521;BME280;4798;41.574;23.734;2023-12-20T12:30:28;94947.84;;;18.44;36.45
9521;BME280;4798;41.574;23.734;2023-12-20T12:33:05;94945.00;;;18.20;36.30
9521;BME280;4798;41.574;23.734;2023-12-20T12:35:34;94939.97;;;19.13;35.81
9521;BME280;4798;41.574;23.734;2023-12-20T12:38:03;94923.28;;;19.08;35.79
9521;BME280;4798;41.574;23.734;2023-12-20T12:40:34;94855.00;;;18.43;36.05
9521;BME280;4798;41.574;23.734;2023-12-20T12:43:05;94932.41;;;18.62;36.67
9521;BME280;4798;41.574;23.734;2023-12-20T12:45:51;94934.13;;;18.37;37.19
9521;BME280;4798;41.574;23.734;2023-12-20T12:48:20;94932.59;;;18.07;36.98
9521;BME280;4798;41.574;23.734;2023-12-20T12:50:49;94927.25;;;17.40;38.40
9521;BME280;4798;41.574;23.734;2023-12-20T12:53:20;94918.56;;;17.43;38.63
9521;BME280;4798;41.574;23.734;2023-12-20T12:55:48;94927.03;;;17.53;38.27
9521;BME280;4798;41.574;23.734;2023-12-20T12:58:18;94918.44;;;17.77;38.12
9521;BME280;4798;41.574;23.734;2023-12-20T13:00:47;94919.31;;;17.52;38.19
9521;BME280;4798;41.574;23.734;2023-12-20T13:03:16;94905.31;;;17.55;38.55
9521;BME280;4798;41.574;23.734;2023-12-20T13:05:45;94910.19;;;18.11;37.63
9521;BME280;4798;41.574;23.734;2023-12-20T13:08:14;94914.50;;;18.24;37.35
9521;BME280;4798;41.574;23.734;2023-12-20T13:10:43;94905.00;;;18.27;37.53
9521;BME280;4798;41.574;23.734;2023-12-20T13:13:11;94898.50;;;18.36;37.37
9521;BME280;4798;41.574;23.734;2023-12-20T13:15:41;94899.66;;;18.06;37.76
9521;BME280;4798;41.574;23.734;2023-12-20T13:18:15;94905.34;;;18.05;37.80
9521;BME280;4798;41.574;23.734;2023-12-20T13:20:44;94884.47;;;17.23;38.40
9521;BME280;4798;41.574;23.734;2023-12-20T13:23:13;94887.53;;;17.33;38.90
9521;BME280;4798;41.574;23.734;2023-12-20T13:25:41;94903.78;;;17.37;39.05
9521;BME280;4798;41.574;23.734;2023-12-20T13:28:10;94892.69;;;17.00;39.35
9521;BME280;4798;41.574;23.734;2023-12-20T13:30:40;94902.53;;;16.71;41.36
9521;BME280;4798;41.574;23.734;2023-12-20T13:33:09;94896.56;;;16.65;39.86